This is the latest recevied weather packets stored in our database for station/object N8QQQ. If no packets are shown the sender has not sent any weather packets the latest 10 day(s).
| Time | Temp. | Humidity | Pressure | Rain* | Wind** | Luminosity | Snow |
|---|---|---|---|---|---|---|---|
| 1777653542 | 1.67° C | 72% | 1016.6 hPa | 0 mm | - | 96 W/m² | - |
| 1777653239 | 1.67° C | 75% | 1016.6 hPa | 0 mm | - | 66 W/m² | - |
| 1777652935 | 2.22° C | 75% | 1016.5 hPa | 0 mm | - | 35 W/m² | - |
| 1777652632 | 2.22° C | 75% | 1016.4 hPa | 0 mm | - | 287 W/m² | - |
| 1777652329 | 1.67° C | 75% | 1016.6 hPa | 0 mm | - | 377 W/m² | - |
| 1777652026 | 1.11° C | 83% | 1016.5 hPa | 0 mm | - | 489 W/m² | - |
| 1777651723 | 0° C | 84% | 1016.8 hPa | 0 mm | - | 197 W/m² | - |
| 1777651419 | -0.56° C | 86% | 1016.7 hPa | 0 mm | - | 110 W/m² | - |
| 1777651117 | 0.56° C | 84% | 1016.8 hPa | 0 mm | - | 46 W/m² | - |
| 1777650813 | 1.67° C | 72% | 1016.6 hPa | 0 mm | - | 61 W/m² | - |
| 1777650207 | 1.67° C | 71% | 1016.5 hPa | 0 mm | - | 79 W/m² | - |
| 1777649905 | 1.67° C | 71% | 1016.6 hPa | 0 mm | - | 93 W/m² | - |
| 1777649602 | 1.67° C | 71% | 1016.5 hPa | 0 mm | - | 117 W/m² | - |
| 1777649298 | 1.67° C | 72% | 1016.6 hPa | 0 mm | - | 150 W/m² | - |
| 1777648995 | 1.67° C | 72% | 1016.3 hPa | 0 mm | - | 142 W/m² | - |
| 1777648693 | 1.67° C | 73% | 1016.6 hPa | 0 mm | - | 117 W/m² | - |
| 1777648389 | 1.11° C | 75% | 1016.3 hPa | 0 mm | - | 126 W/m² | - |
| 1777648085 | 1.11° C | 74% | 1016.5 hPa | 0 mm | - | 142 W/m² | - |
| 1777647782 | 1.67° C | 76% | 1016.3 hPa | 0 mm | - | 114 W/m² | - |
| 1777647478 | 1.11° C | 76% | 1016.4 hPa | 0 mm | - | 97 W/m² | - |
| 1777646264 | 0.56° C | 78% | 1016.3 hPa | 0 mm | - | 97 W/m² | - |
| 1777645961 | 0.56° C | 78% | 1016.4 hPa | 0 mm | - | 84 W/m² | - |
| 1777645658 | 0.56° C | 78% | 1016.4 hPa | 0 mm | - | 95 W/m² | - |
| 1777645354 | 0.56° C | 79% | 1016.4 hPa | 0 mm | - | 94 W/m² | - |
| 1777645049 | 0.56° C | 79% | 1016.3 hPa | 0 mm | - | 91 W/m² | - |
* Rain latest hour (hover to see other rain measurements)
** Current wind speed in m/s (hover to see current wind gust speed)